Time;durP1;ratioP1;P1;durP2;ratioP2;P2;SDS_P1;SDS_P2;PMS_P1;PMS_P2;Temp;Humidity;BMP_temperature;BMP_pressure;BME280_temperature;BME280_humidity;BME280_pressure;Samples;Min_cycle;Max_cycle;Signal;HPM_P1;HPM_P2
2022/05/20 00:01:36;;;;;;;6.25;2.17;;;;;;;9.55;56.53;96496.53;5083322;28;20020;-84
2022/05/20 00:04:02;;;;;;;3.67;2.00;;;;;;;9.55;56.65;96496.53;5082928;28;20020;-84
2022/05/20 00:06:27;;;;;;;4.25;1.80;;;;;;;9.49;56.40;96495.28;5085474;28;20035;-85
2022/05/20 00:08:53;;;;;;;6.43;1.80;;;;;;;9.48;56.49;96490.91;5081410;28;20035;-82
2022/05/20 00:11:18;;;;;;;2.33;1.60;;;;;;;9.44;56.78;96490.34;5085360;28;20020;-82
2022/05/20 00:13:45;;;;;;;2.97;1.65;;;;;;;9.38;56.49;96488.25;5082421;28;20031;-82
2022/05/20 00:16:10;;;;;;;4.05;1.63;;;;;;;9.35;56.67;96493.91;5085990;28;20028;-82
2022/05/20 00:18:36;;;;;;;4.35;1.55;;;;;;;9.31;57.04;96501.38;5063361;28;20024;-82
2022/05/20 00:21:01;;;;;;;4.15;1.75;;;;;;;9.33;57.11;96501.22;5066015;28;20024;-83
2022/05/20 00:23:27;;;;;;;3.08;1.70;;;;;;;9.35;56.72;96501.94;5079614;28;20074;-84
2022/05/20 00:25:53;;;;;;;4.88;1.80;;;;;;;9.40;56.55;96499.66;5082038;28;20030;-84
2022/05/20 00:28:28;;;;;;;6.75;2.08;;;;;;;9.44;56.71;96503.75;5084374;28;20026;-84
2022/05/20 00:31:02;;;;;;;3.42;2.00;;;;;;;9.46;56.96;96504.44;5064162;28;20070;-83
2022/05/20 00:33:28;;;;;;;3.35;1.90;;;;;;;9.46;57.22;96517.81;5083490;28;20040;-82
2022/05/20 00:35:53;;;;;;;2.95;1.83;;;;;;;9.45;57.38;96529.53;5079080;28;20046;-82
2022/05/20 00:38:19;;;;;;;3.28;1.98;;;;;;;9.44;56.50;96517.13;5066016;28;20021;-82
2022/05/20 00:40:45;;;;;;;2.88;1.70;;;;;;;9.44;56.70;96522.50;5085364;28;20020;-83
2022/05/20 00:43:12;;;;;;;3.20;1.92;;;;;;;9.45;56.56;96515.28;5064540;28;20094;-81
2022/05/20 00:45:38;;;;;;;6.75;2.00;;;;;;;9.42;56.07;96523.59;5086539;28;20032;-82
2022/05/20 00:48:04;;;;;;;3.28;1.80;;;;;;;9.41;56.75;96520.09;5081768;28;20024;-83
2022/05/20 00:50:30;;;;;;;3.42;1.92;;;;;;;9.39;56.68;96514.03;5085103;28;20378;-84
2022/05/20 00:52:55;;;;;;;5.18;1.90;;;;;;;9.36;57.48;96522.34;5082328;28;20505;-87
2022/05/20 00:55:21;;;;;;;4.03;1.73;;;;;;;9.26;57.54;96520.53;5068344;28;20414;-86
2022/05/20 00:57:55;;;;;;;3.28;2.00;;;;;;;9.21;57.94;96522.78;5086908;28;20540;-85
2022/05/20 01:00:26;;;;;;;2.63;1.70;;;;;;;9.19;57.90;96521.25;5047884;28;20031;-85
2022/05/20 01:02:53;;;;;;;2.83;1.80;;;;;;;9.08;58.39;96519.53;5068456;28;20567;-87
2022/05/20 01:05:22;;;;;;;3.30;1.75;;;;;;;9.05;58.99;96526.03;5064350;28;20096;-87
2022/05/20 01:07:48;;;;;;;3.95;2.03;;;;;;;9.01;58.47;96517.41;5065251;28;20051;-86
2022/05/20 01:10:13;;;;;;;3.83;2.10;;;;;;;8.98;58.38;96516.88;5062974;28;20411;-87
2022/05/20 01:12:38;;;;;;;3.80;1.88;;;;;;;8.89;57.89;96515.88;5065469;28;20028;-87
2022/05/20 01:15:05;;;;;;;6.43;1.90;;;;;;;8.81;58.62;96510.38;5063906;28;20403;-88
2022/05/20 01:17:30;;;;;;;7.63;2.17;;;;;;;8.74;58.70;96515.44;5045885;28;20116;-87
2022/05/20 01:19:56;;;;;;;3.67;1.83;;;;;;;8.71;58.83;96510.34;5064279;28;20020;-88
2022/05/20 01:22:53;;;;;;;2.53;1.58;;;;;;;8.65;58.90;96511.78;5045788;28;20032;-86
2022/05/20 01:25:19;;;;;;;3.05;1.80;;;;;;;8.63;58.78;96508.38;5050154;28;20411;-86
2022/05/20 01:27:46;;;;;;;2.97;1.88;;;;;;;8.59;59.31;96518.50;5063948;28;20116;-89
2022/05/20 01:30:13;;;;;;;3.33;1.67;;;;;;;8.48;59.76;96511.41;5063340;28;20029;-87
2022/05/20 01:32:38;;;;;;;4.85;1.95;;;;;;;8.55;59.76;96510.88;5047193;28;20085;-88
2022/05/20 01:35:05;;;;;;;3.22;1.75;;;;;;;8.51;59.19;96516.47;5063605;28;20021;-85
2022/05/20 01:37:30;;;;;;;4.43;1.88;;;;;;;8.47;59.25;96507.06;5065700;28;20920;-87
2022/05/20 01:39:58;;;;;;;4.10;2.42;;;;;;;8.45;59.32;96506.34;5082667;28;20020;-85
2022/05/20 01:42:28;;;;;;;3.55;1.60;;;;;;;8.43;59.46;96507.47;5067194;28;20567;-86
2022/05/20 01:45:01;;;;;;;4.57;1.80;;;;;;;8.40;59.79;96505.91;5048338;28;20036;-86
2022/05/20 01:47:30;;;;;;;3.47;1.90;;;;;;;8.40;59.88;96508.56;5062275;28;20025;-88
2022/05/20 01:50:19;;;;;;;5.35;1.80;;;;;;;8.44;59.65;96510.00;5081827;28;20028;-87
2022/05/20 01:52:54;;;;;;;5.50;2.35;;;;;;;8.46;59.07;96515.22;5067627;28;20031;-86
2022/05/20 01:55:36;;;;;;;5.07;2.17;;;;;;;8.51;59.49;96513.81;5085040;28;20039;-86
2022/05/20 01:58:10;;;;;;;3.17;1.83;;;;;;;8.44;59.70;96515.34;5086849;28;20023;-86
2022/05/20 02:00:35;;;;;;;5.85;2.20;;;;;;;8.35;59.82;96513.50;5086186;28;20277;-86
2022/05/20 02:03:08;;;;;;;4.53;1.88;;;;;;;8.28;60.45;96511.38;5050788;28;20028;-88
2022/05/20 02:05:40;;;;;;;4.55;2.58;;;;;;;8.32;60.65;96513.78;5085325;28;20479;-86
2022/05/20 02:08:33;;;;;;;3.92;2.20;;;;;;;8.22;60.59;96516.41;5085736;28;20107;-88
2022/05/20 02:11:06;;;;;;;3.00;1.80;;;;;;;8.15;60.84;96521.44;5070435;28;20410;-87
2022/05/20 02:13:32;;;;;;;;;;;;;;;8.16;61.09;96523.13;5086250;28;20024;-88
2022/05/20 02:16:01;;;;;;;3.35;1.52;;;;;;;8.04;61.83;96520.56;5088296;28;19912;-88
2022/05/20 02:18:29;;;;;;;3.30;1.92;;;;;;;8.09;61.78;96525.53;5087254;28;20024;-86
2022/05/20 02:20:57;;;;;;;4.65;2.00;;;;;;;7.97;62.22;96516.75;5072594;28;20059;-86
2022/05/20 02:23:25;;;;;;;3.38;2.35;;;;;;;7.93;62.17;96523.34;5087465;28;20062;-86
2022/05/20 02:25:52;;;;;;;4.55;2.20;;;;;;;7.96;61.45;96523.06;5072023;28;20034;-85
2022/05/20 02:28:21;;;;;;;3.53;2.03;;;;;;;8.01;61.91;96528.84;5071260;28;20125;-87
2022/05/20 02:30:46;;;;;;;4.05;2.03;;;;;;;7.99;62.11;96529.97;5071359;28;20081;-86
2022/05/20 02:33:21;;;;;;;7.07;2.08;;;;;;;8.13;61.48;96529.59;5073774;28;20040;-85
2022/05/20 02:35:47;;;;;;;4.50;2.47;;;;;;;8.11;61.59;96526.22;5071714;28;20020;-87
2022/05/20 02:38:17;;;;;;;5.05;2.10;;;;;;;8.15;61.17;96527.66;5090491;28;20650;-87
2022/05/20 02:40:44;;;;;;;3.22;2.30;;;;;;;8.22;60.92;96527.94;5087583;28;20035;-87
2022/05/20 02:43:10;;;;;;;4.60;2.50;;;;;;;8.23;61.33;96524.31;5071791;28;20040;-86
2022/05/20 02:45:36;;;;;;;4.13;2.28;;;;;;;8.21;61.18;96520.91;5087757;28;20032;-87
2022/05/20 02:48:02;;;;;;;3.42;1.95;;;;;;;8.19;61.12;96522.03;5071402;28;20024;-87
2022/05/20 02:50:27;;;;;;;3.95;1.98;;;;;;;8.19;61.91;96516.69;5071352;28;20111;-89
2022/05/20 02:52:53;;;;;;;5.03;2.22;;;;;;;8.18;61.92;96513.16;5088523;28;20440;-87
2022/05/20 02:55:18;;;;;;;5.07;2.20;;;;;;;8.11;60.92;96506.69;5088688;28;20016;-88
2022/05/20 02:57:46;;;;;;;3.45;2.33;;;;;;;8.03;60.62;96510.00;5086538;28;20032;-87
2022/05/20 03:05:41;;;;;;;3.78;2.30;;;;;;;8.05;60.80;96521.41;5088369;28;20043;-86
2022/05/20 03:08:07;;;;;;;6.05;2.38;;;;;;;8.03;60.82;96526.03;5070835;28;20115;-85
2022/05/20 03:10:32;;;;;;;6.63;2.38;;;;;;;8.01;60.80;96523.50;5069685;28;20487;-84
2022/05/20 03:13:02;;;;;;;6.70;2.30;;;;;;;7.93;60.96;96519.81;5089279;28;20035;-86
2022/05/20 03:15:28;;;;;;;5.72;2.30;;;;;;;7.87;60.94;96529.19;5086750;28;20139;-85
2022/05/20 03:17:53;;;;;;;6.80;2.78;;;;;;;7.81;60.48;96525.25;5070880;28;20031;-84
2022/05/20 03:20:20;;;;;;;4.97;2.70;;;;;;;7.70;60.72;96527.97;5087175;28;20024;-86
2022/05/20 03:22:45;;;;;;;4.32;2.40;;;;;;;7.69;60.90;96520.97;5088176;28;20016;-88
2022/05/20 03:25:10;;;;;;;8.13;2.10;;;;;;;7.73;60.75;96528.56;5070909;28;20035;-86
2022/05/20 03:27:37;;;;;;;6.28;2.33;;;;;;;7.77;60.39;96523.81;5086463;28;20025;-85
2022/05/20 03:30:05;;;;;;;3.83;2.08;;;;;;;7.85;60.35;96529.31;5087799;28;20145;-84
2022/05/20 03:32:30;;;;;;;3.75;2.30;;;;;;;7.85;60.37;96534.66;5086915;28;20028;-85
2022/05/20 03:34:57;;;;;;;3.33;2.08;;;;;;;7.90;60.02;96537.78;5087682;28;20031;-85
2022/05/20 03:37:22;;;;;;;5.15;2.53;;;;;;;7.89;60.10;96541.44;5086727;28;20128;-86
2022/05/20 03:39:48;;;;;;;6.40;2.67;;;;;;;7.92;59.91;96548.34;5087452;28;20084;-86
2022/05/20 03:42:13;;;;;;;6.57;3.05;;;;;;;7.94;59.66;96543.72;5088231;28;20482;-84
2022/05/20 03:44:38;;;;;;;6.43;2.83;;;;;;;7.92;59.84;96537.66;5069317;28;20044;-84
2022/05/20 03:47:04;;;;;;;6.75;2.58;;;;;;;7.89;60.11;96549.47;5088720;28;20035;-86
2022/05/20 03:49:29;;;;;;;5.43;2.30;;;;;;;7.88;60.40;96547.75;5086892;28;20024;-86
2022/05/20 03:51:55;;;;;;;3.88;2.35;;;;;;;7.93;60.07;96554.53;5087054;28;20487;-86
2022/05/20 03:54:23;;;;;;;7.25;3.13;;;;;;;7.97;59.90;96556.81;5065287;28;20092;-86
2022/05/20 03:56:48;;;;;;;3.83;2.10;;;;;;;7.96;59.67;96547.13;5066733;28;20036;-90
2022/05/20 03:59:13;;;;;;;4.95;1.85;;;;;;;7.95;60.38;96556.09;5049218;28;20444;-87
2022/05/20 04:01:56;;;;;;;4.90;2.30;;;;;;;7.99;60.63;96562.03;5066186;28;20487;-89
2022/05/20 04:04:39;;;;;;;4.32;2.40;;;;;;;8.00;61.03;96567.22;5052760;28;20142;-85
2022/05/20 04:07:08;;;;;;;5.57;2.40;;;;;;;8.06;59.94;96565.00;5050677;28;20052;-85
2022/05/20 04:09:33;;;;;;;7.25;2.50;;;;;;;8.07;59.96;96564.88;5066423;28;20052;-86
2022/05/20 04:11:59;;;;;;;5.13;2.40;;;;;;;8.18;59.81;96555.91;5048474;28;20039;-86
2022/05/20 04:14:28;;;;;;;8.77;2.47;;;;;;;8.33;59.78;96563.56;5049795;28;20115;-89
2022/05/20 04:17:00;;;;;;;7.43;3.00;;;;;;;8.56;59.25;96566.09;5033049;28;20107;-88
2022/05/20 04:19:26;;;;;;;6.78;3.05;;;;;;;8.88;58.38;96570.38;5049131;28;20028;-79
2022/05/20 04:21:52;;;;;;;4.07;2.30;;;;;;;9.19;57.62;96567.56;5066405;28;20119;-79
2022/05/20 04:24:19;;;;;;;9.15;2.80;;;;;;;9.48;56.35;96565.91;5064635;28;20162;-79
2022/05/20 04:26:44;;;;;;;6.13;2.97;;;;;;;9.72;56.14;96567.28;5067772;28;20028;-79
2022/05/20 04:29:09;;;;;;;8.30;2.95;;;;;;;10.05;55.26;96561.53;5064844;28;20126;-80
2022/05/20 04:31:36;;;;;;;7.13;3.03;;;;;;;10.38;54.29;96562.84;5067411;28;20024;-80
2022/05/20 04:34:02;;;;;;;5.30;2.90;;;;;;;10.66;53.89;96567.41;5065654;28;20025;-79
2022/05/20 04:36:27;;;;;;;4.30;2.45;;;;;;;10.93;52.70;96578.28;5066113;28;20044;-79
2022/05/20 04:38:52;;;;;;;7.70;2.88;;;;;;;10.94;53.30;96577.28;5071536;28;20043;-79
2022/05/20 04:46:58;;;;;;;6.10;2.63;;;;;;;11.70;51.64;96575.09;5078888;28;20039;-80
2022/05/20 04:49:33;;;;;;;5.15;2.40;;;;;;;11.91;50.20;96576.63;5078608;28;20039;-80
2022/05/20 04:52:00;;;;;;;3.53;2.10;;;;;;;12.07;49.87;96577.72;5078510;28;20032;-79
2022/05/20 04:57:30;;;;;;;4.43;2.30;;;;;;;12.51;49.60;96578.69;5085427;28;20178;-78
2022/05/20 05:00:07;;;;;;;6.20;2.63;;;;;;;12.69;48.68;96587.50;5083054;28;20030;-79
2022/05/20 05:02:33;;;;;;;9.85;2.55;;;;;;;12.83;48.43;96583.34;5068910;28;20035;-77
2022/05/20 05:04:58;;;;;;;6.75;3.00;;;;;;;12.90;48.80;96591.63;5069250;28;20093;-79
2022/05/20 05:07:24;;;;;;;6.25;2.67;;;;;;;13.10;48.67;96584.13;5050279;28;20035;-79
2022/05/20 05:09:49;;;;;;;4.53;2.75;;;;;;;13.09;48.90;96584.28;5086413;28;20028;-79
2022/05/20 05:12:15;;;;;;;6.93;3.00;;;;;;;13.25;48.28;96585.31;5083654;28;20441;-77
2022/05/20 05:14:47;;;;;;;15.10;3.10;;;;;;;13.43;48.58;96588.69;5067966;28;20021;-77
2022/05/20 05:17:14;;;;;;;15.55;3.70;;;;;;;13.56;48.76;96588.25;5086292;28;20494;-78
2022/05/20 05:19:39;;;;;;;7.95;2.92;;;;;;;13.74;48.31;96591.78;5084616;28;20020;-76
2022/05/20 05:22:06;;;;;;;6.95;3.05;;;;;;;13.79;48.23;96592.13;5086502;28;20072;-78
2022/05/20 05:24:31;;;;;;;5.63;3.67;;;;;;;13.91;48.25;96590.75;5083805;28;20397;-78
2022/05/20 05:26:57;;;;;;;8.23;3.30;;;;;;;13.99;47.75;96587.25;5087011;28;20039;-78
2022/05/20 05:29:22;;;;;;;5.47;3.28;;;;;;;13.94;47.90;96590.44;5085004;28;20036;-77
2022/05/20 05:31:48;;;;;;;8.32;3.20;;;;;;;14.11;47.87;96579.63;5086637;28;20032;-78
2022/05/20 05:34:14;;;;;;;7.85;3.20;;;;;;;14.37;46.32;96583.09;5085377;28;20024;-77
2022/05/20 05:36:39;;;;;;;5.00;3.00;;;;;;;14.52;46.52;96586.78;5086060;28;20045;-76
2022/05/20 05:39:05;;;;;;;10.23;3.60;;;;;;;14.38;46.61;96585.63;5085966;28;20068;-78
2022/05/20 05:41:32;;;;;;;5.55;3.78;;;;;;;14.28;46.72;96579.59;5084979;28;20040;-77
2022/05/20 05:44:03;;;;;;;7.85;3.45;;;;;;;14.48;46.24;96579.22;5086417;28;20051;-80
2022/05/20 05:46:29;;;;;;;6.65;3.28;;;;;;;14.64;46.51;96587.25;5083405;28;20040;-78
2022/05/20 05:48:54;;;;;;;6.00;3.63;;;;;;;14.85;46.43;96580.44;5086531;28;20077;-79
2022/05/20 05:51:20;;;;;;;13.13;3.78;;;;;;;15.02;45.93;96585.78;5085274;28;20089;-79
2022/05/20 05:53:45;;;;;;;11.23;3.47;;;;;;;15.11;45.26;96581.16;5084832;28;20032;-78
2022/05/20 05:56:11;;;;;;;10.05;4.20;;;;;;;15.20;45.05;96580.94;5085544;28;20024;-78
2022/05/20 05:58:37;;;;;;;11.55;4.03;;;;;;;15.34;43.79;96583.91;5085791;28;20403;-77
2022/05/20 06:01:03;;;;;;;12.18;4.30;;;;;;;15.29;44.70;96586.28;5086479;28;20035;-82
2022/05/20 06:03:28;;;;;;;14.93;4.25;;;;;;;15.41;44.28;96584.84;5083655;28;20433;-79
2022/05/20 06:05:53;;;;;;;10.50;4.30;;;;;;;15.27;45.57;96582.91;5086709;28;20089;-77
2022/05/20 06:08:50;;;;;;;10.02;4.10;;;;;;;15.13;45.03;96584.53;5083482;28;20031;-78
2022/05/20 06:11:15;;;;;;;12.80;5.28;;;;;;;15.29;45.61;96576.31;5086045;28;20451;-80
2022/05/20 06:13:41;;;;;;;13.13;5.68;;;;;;;15.42;45.12;96574.88;5085516;28;20043;-79
2022/05/20 06:16:06;;;;;;;14.88;5.13;;;;;;;15.57;45.19;96578.47;5085407;28;20494;-79
2022/05/20 06:18:31;;;;;;;12.60;4.22;;;;;;;15.80;44.08;96572.22;5086474;28;20488;-79
2022/05/20 06:20:57;;;;;;;18.67;5.25;;;;;;;15.77;44.58;96569.88;5083200;28;20035;-77
2022/05/20 06:23:23;;;;;;;14.25;4.10;;;;;;;15.51;43.75;96573.81;5084837;28;20028;-78
2022/05/20 06:25:48;;;;;;;10.13;4.25;;;;;;;15.75;43.74;96569.22;5066290;28;20024;-80
2022/05/20 06:28:15;;;;;;;9.27;4.03;;;;;;;16.01;43.30;96557.19;5084917;28;20165;-78
2022/05/20 06:30:40;;;;;;;14.68;7.18;;;;;;;16.17;43.36;96560.75;5084963;28;20021;-81
2022/05/20 06:33:06;;;;;;;9.13;4.78;;;;;;;16.14;43.47;96561.97;5084310;28;20051;-77
2022/05/20 06:41:00;;;;;;;7.00;3.75;;;;;;;16.55;42.11;96567.97;5086025;28;20051;-77
2022/05/20 06:43:26;;;;;;;11.10;4.15;;;;;;;16.82;41.33;96560.19;5088214;28;20111;-77
2022/05/20 06:46:07;;;;;;;7.63;3.25;;;;;;;16.90;40.91;96561.97;5089371;28;20198;-76
2022/05/20 06:48:42;;;;;;;6.43;3.15;;;;;;;16.97;41.65;96559.34;5089370;28;20028;-77
2022/05/20 06:51:08;;;;;;;8.27;3.53;;;;;;;16.85;41.05;96557.09;5088536;28;20066;-80
2022/05/20 06:53:34;;;;;;;9.25;3.70;;;;;;;16.95;40.78;96553.25;5088593;28;20427;-79
2022/05/20 06:55:59;;;;;;;8.57;3.55;;;;;;;17.16;40.64;96564.19;5078171;28;20402;-80
2022/05/20 06:58:25;;;;;;;5.35;3.33;;;;;;;17.13;41.54;96564.56;5079254;28;20036;-80
2022/05/20 07:00:50;;;;;;;7.13;3.17;;;;;;;17.31;41.22;96555.16;5083505;28;20358;-80
2022/05/20 07:03:19;;;;;;;5.80;3.05;;;;;;;17.21;40.19;96555.47;5082277;28;20036;-79
2022/05/20 07:05:45;;;;;;;8.32;3.15;;;;;;;17.27;40.51;96557.41;5088269;28;20028;-79
2022/05/20 07:08:10;;;;;;;7.38;2.90;;;;;;;17.43;39.59;96550.06;5086249;28;20024;-78
2022/05/20 07:10:36;;;;;;;7.10;3.00;;;;;;;17.55;38.51;96545.78;5088747;28;20573;-77
2022/05/20 07:13:01;;;;;;;8.95;2.95;;;;;;;17.63;38.89;96549.41;5087010;28;20478;-79
2022/05/20 07:15:27;;;;;;;5.43;2.72;;;;;;;17.57;40.67;96548.34;5089252;28;20466;-78
2022/05/20 07:17:52;;;;;;;8.85;3.17;;;;;;;17.82;39.46;96542.50;5087048;28;20079;-79
2022/05/20 07:20:18;;;;;;;6.05;2.78;;;;;;;18.00;38.93;96543.88;5089556;28;20103;-78
2022/05/20 07:22:43;;;;;;;11.32;2.78;;;;;;;18.22;39.65;96541.13;5088032;28;20028;-79
2022/05/20 07:25:09;;;;;;;8.25;2.90;;;;;;;18.36;38.10;96537.47;5088056;28;20032;-77
2022/05/20 07:27:34;;;;;;;6.13;3.20;;;;;;;18.45;36.36;96540.03;5084525;28;20508;-76
2022/05/20 07:30:00;;;;;;;9.35;2.95;;;;;;;18.40;38.46;96529.78;5082946;28;20028;-77
2022/05/20 07:32:25;;;;;;;7.45;2.55;;;;;;;18.38;37.64;96538.13;5068502;28;20249;-79
2022/05/20 07:34:51;;;;;;;3.83;2.65;;;;;;;18.63;38.66;96528.66;5085048;28;20114;-77
2022/05/20 07:37:16;;;;;;;8.50;2.95;;;;;;;18.66;37.41;96536.38;5085590;28;20178;-78
2022/05/20 07:39:42;;;;;;;8.05;3.20;;;;;;;18.69;37.55;96540.56;5101963;28;20085;-78
2022/05/20 07:42:08;;;;;;;8.95;2.97;;;;;;;18.22;38.78;96531.13;5083917;28;20027;-77
2022/05/20 07:44:35;;;;;;;7.53;3.00;;;;;;;18.19;38.25;96530.69;5084547;28;20358;-79
2022/05/20 07:47:01;;;;;;;5.90;2.80;;;;;;;18.44;38.78;96532.94;5082255;28;20033;-79
2022/05/20 07:49:26;;;;;;;6.20;2.90;;;;;;;18.57;39.26;96533.00;5083656;28;20024;-78
2022/05/20 07:51:52;;;;;;;3.92;2.20;;;;;;;18.65;36.50;96535.53;5044160;28;20481;-79
2022/05/20 07:54:20;;;;;;;7.20;2.55;;;;;;;18.52;36.88;96521.91;5061788;28;20047;-79
2022/05/20 07:56:49;;;;;;;5.72;2.40;;;;;;;18.50;36.38;96526.69;5065839;28;20459;-78
2022/05/20 07:59:40;;;;;;;3.70;2.30;;;;;;;18.77;35.45;96518.66;5068991;28;20111;-78
2022/05/20 08:02:06;;;;;;;5.80;2.58;;;;;;;18.85;36.70;96517.66;5070839;28;20039;-79
2022/05/20 08:04:53;;;;;;;6.47;2.03;;;;;;;19.12;36.67;96515.06;5082039;28;20028;-79
2022/05/20 08:07:19;;;;;;;7.55;2.00;;;;;;;19.28;36.37;96519.28;5080872;28;20031;-77
2022/05/20 08:09:44;;;;;;;6.53;2.25;;;;;;;19.54;35.54;96517.63;5083943;28;20059;-78
2022/05/20 08:12:10;;;;;;;9.25;2.30;;;;;;;19.71;35.14;96509.09;5085544;28;20016;-78
2022/05/20 08:14:35;;;;;;;6.55;2.00;;;;;;;19.36;33.89;96510.91;5081054;28;20032;-77
2022/05/20 08:17:01;;;;;;;4.45;1.90;;;;;;;19.19;35.82;96502.31;5086809;28;20021;-78
2022/05/20 08:19:27;;;;;;;6.43;1.80;;;;;;;19.44;36.33;96504.44;5083812;28;20514;-78
2022/05/20 08:21:53;;;;;;;5.32;1.95;;;;;;;19.52;35.64;96498.00;5085673;28;20123;-80
2022/05/20 08:24:18;;;;;;;7.32;2.22;;;;;;;19.76;33.11;96495.69;5081314;28;20105;-83
2022/05/20 08:26:43;;;;;;;5.35;1.77;;;;;;;19.86;33.41;96487.09;5085514;28;20490;-78
2022/05/20 08:29:12;;;;;;;8.77;2.00;;;;;;;20.00;32.94;96487.91;5085472;28;20293;-77
2022/05/20 08:31:38;;;;;;;12.43;2.50;;;;;;;20.02;33.04;96485.84;5079138;28;20534;-80
2022/05/20 08:34:03;;;;;;;4.00;1.50;;;;;;;20.20;32.32;96487.09;5081126;28;20032;-79
2022/05/20 08:36:29;;;;;;;5.18;2.13;;;;;;;19.96;32.34;96476.59;5082162;28;20020;-78
2022/05/20 08:38:55;;;;;;;8.15;2.00;;;;;;;20.12;32.19;96474.50;5084852;28;20024;-79
2022/05/20 08:41:41;;;;;;;6.00;1.73;;;;;;;20.13;31.77;96474.31;5084438;28;20461;-79
2022/05/20 08:44:11;;;;;;;8.18;1.80;;;;;;;20.11;31.65;96470.97;5081738;28;20048;-77
2022/05/20 08:46:37;;;;;;;7.38;1.70;;;;;;;20.43;31.89;96469.41;5080866;28;20490;-77
2022/05/20 08:49:02;;;;;;;8.02;2.35;;;;;;;20.53;30.02;96469.81;5080431;28;20031;-80
2022/05/20 08:51:29;;;;;;;3.35;1.52;;;;;;;20.65;30.17;96469.94;5083809;28;20028;-77
2022/05/20 08:53:54;;;;;;;5.70;1.50;;;;;;;20.88;30.32;96472.16;5079785;28;20035;-78
2022/05/20 08:56:22;;;;;;;7.38;2.03;;;;;;;20.92;29.68;96461.72;5083992;28;20044;-82
2022/05/20 08:59:01;;;;;;;4.22;1.50;;;;;;;21.04;29.39;96456.38;5083914;28;20525;-78
2022/05/20 09:01:27;;;;;;;2.80;1.50;;;;;;;21.15;26.52;96451.28;5067074;28;20028;-78
2022/05/20 09:03:52;;;;;;;2.95;1.13;;;;;;;21.26;26.97;96447.88;5082485;28;20226;-79
2022/05/20 09:06:18;;;;;;;3.97;1.30;;;;;;;21.29;25.89;96441.97;5078329;28;20024;-79
2022/05/20 09:08:45;;;;;;;2.25;1.10;;;;;;;21.27;26.28;96435.03;5085505;28;20229;-80
2022/05/20 09:11:17;;;;;;;7.95;1.20;;;;;;;21.27;26.18;96437.78;5082273;28;20062;-77
2022/05/20 09:16:29;;;;;;;5.00;1.30;;;;;;;21.58;29.47;96428.72;5084739;28;20039;-78
2022/05/20 09:19:05;;;;;;;4.78;1.50;;;;;;;21.61;27.62;96428.28;5066084;28;20035;-78
2022/05/20 09:21:38;;;;;;;3.92;1.13;;;;;;;21.79;28.40;96423.97;5082502;28;20084;-81
2022/05/20 09:24:12;;;;;;;2.33;1.15;;;;;;;21.83;26.94;96418.84;5077855;28;20573;-79
2022/05/20 09:26:39;;;;;;;2.53;0.93;;;;;;;21.91;26.85;96407.66;5065363;28;20036;-79
2022/05/20 09:29:42;;;;;;;2.08;0.88;;;;;;;22.07;26.53;96405.41;5083993;28;20028;-81
2022/05/20 09:32:20;;;;;;;3.17;1.30;;;;;;;22.20;27.14;96401.66;5052275;28;20049;-78
2022/05/20 09:34:45;;;;;;;3.42;1.35;;;;;;;22.25;25.92;96401.00;5083351;28;20031;-79
2022/05/20 09:37:14;;;;;;;2.05;0.90;;;;;;;22.22;25.05;96400.41;5083936;28;20299;-78
2022/05/20 09:39:42;;;;;;;1.88;0.98;;;;;;;22.22;22.92;96389.47;5082099;28;20031;-78
2022/05/20 09:42:35;;;;;;;1.77;0.52;;;;;;;22.17;21.64;96388.47;5084633;28;20016;-79
2022/05/20 09:45:03;;;;;;;1.88;0.52;;;;;;;22.20;24.96;96385.28;5063881;28;20040;-77
2022/05/20 09:47:33;;;;;;;4.20;0.80;;;;;;;21.82;24.10;96387.16;5083464;28;20248;-81
2022/05/20 09:50:03;;;;;;;3.60;0.90;;;;;;;21.82;23.70;96388.00;5082774;28;20024;-83
2022/05/20 09:52:32;;;;;;;2.72;1.13;;;;;;;21.90;26.42;96383.31;5079790;28;20500;-80
2022/05/20 09:55:21;;;;;;;2.50;1.00;;;;;;;22.07;25.30;96378.91;5083456;28;20028;-79
2022/05/20 09:57:47;;;;;;;3.97;0.90;;;;;;;21.96;23.85;96371.47;5081275;28;20044;-79
2022/05/20 10:00:15;;;;;;;2.50;0.90;;;;;;;22.13;24.72;96377.19;5084497;28;20039;-78
2022/05/20 10:02:42;;;;;;;7.53;1.20;;;;;;;22.29;24.80;96378.47;5080005;28;20494;-79
2022/05/20 10:05:27;;;;;;;2.90;0.80;;;;;;;22.37;24.87;96374.59;5083840;28;20034;-79
2022/05/20 10:08:10;;;;;;;2.13;0.80;;;;;;;22.45;23.20;96370.69;5081099;28;20433;-79
2022/05/20 10:11:10;;;;;;;5.53;1.25;;;;;;;22.47;23.98;96361.19;5077278;28;20414;-81
2022/05/20 10:13:35;;;;;;;3.42;1.00;;;;;;;22.56;22.42;96369.91;5058858;28;20135;-81
2022/05/20 10:16:24;;;;;;;2.55;0.85;;;;;;;22.65;22.98;96359.50;5086102;28;20113;-84
2022/05/20 10:19:07;;;;;;;3.92;1.10;;;;;;;22.70;23.49;96364.28;5086328;28;20494;-81
2022/05/20 10:21:36;;;;;;;4.80;0.90;;;;;;;22.78;23.60;96353.03;5088155;28;20048;-80
2022/05/20 10:24:10;;;;;;;5.25;1.00;;;;;;;22.66;22.34;96341.22;5083837;28;20446;-81
2022/05/20 10:26:43;;;;;;;2.15;0.73;;;;;;;22.66;24.91;96346.69;5089329;28;20036;-79
2022/05/20 10:34:56;;;;;;;1.08;0.60;;;;;;;22.42;21.04;96325.53;5085597;28;20074;-81
2022/05/20 10:37:25;;;;;;;1.30;0.50;;;;;;;22.51;19.59;96323.31;5085013;28;20055;-80
2022/05/20 10:40:12;;;;;;;1.92;0.55;;;;;;;22.52;20.83;96327.69;5087922;28;20027;-81
2022/05/20 10:42:44;;;;;;;2.08;0.60;;;;;;;22.56;19.13;96325.34;5083099;28;20568;-80
2022/05/20 10:50:58;;;;;;;3.92;0.63;;;;;;;22.48;21.11;96310.09;5084901;28;20039;-81
2022/05/20 10:53:26;;;;;;;4.53;1.00;;;;;;;22.53;19.87;96312.97;5076646;28;20032;-80
2022/05/20 10:56:30;;;;;;;1.52;0.70;;;;;;;22.66;18.49;96319.34;5084362;28;20468;-79
2022/05/20 10:59:23;;;;;;;1.83;0.77;;;;;;;22.65;17.38;96310.31;5085268;28;20032;-80
2022/05/20 11:02:16;;;;;;;1.33;0.60;;;;;;;22.63;18.68;96303.41;5086105;28;20222;-82
2022/05/20 11:05:23;;;;;;;1.90;0.70;;;;;;;22.84;22.60;96304.78;5054910;28;20028;-80
2022/05/20 11:08:13;;;;;;;4.32;0.80;;;;;;;22.98;22.49;96299.94;5053439;28;20047;-83
2022/05/20 11:10:45;;;;;;;2.20;0.85;;;;;;;23.09;19.33;96293.66;5084285;28;20082;-81
2022/05/20 11:13:42;;;;;;;2.70;0.90;;;;;;;23.07;19.98;96290.31;5083425;28;20423;-81
2022/05/20 11:16:19;;;;;;;2.63;0.80;;;;;;;22.96;21.53;96297.44;5083932;28;20107;-81
2022/05/20 11:19:29;;;;;;;2.25;0.80;;;;;;;23.06;19.91;96285.91;5088043;28;20406;-83
2022/05/20 11:21:57;;;;;;;1.52;0.63;;;;;;;23.15;20.36;96282.84;5044871;28;20470;-80
2022/05/20 11:24:44;;;;;;;2.75;0.90;;;;;;;23.17;19.91;96275.19;5039092;28;20053;-81
2022/05/20 11:27:25;;;;;;;5.07;1.10;;;;;;;23.15;20.33;96272.69;5065974;28;20411;-81
2022/05/20 11:30:12;;;;;;;4.30;1.42;;;;;;;22.92;19.79;96268.06;5086658;28;20432;-82
2022/05/20 11:32:57;;;;;;;1.73;0.88;;;;;;;22.87;19.45;96265.19;5078690;28;20075;-81
2022/05/20 11:35:49;;;;;;;1.80;0.80;;;;;;;22.96;21.84;96269.25;5083217;28;20044;-82
2022/05/20 11:38:26;;;;;;;1.52;0.70;;;;;;;23.21;20.88;96260.00;5081544;28;20035;-79
2022/05/20 11:40:57;;;;;;;3.17;1.20;;;;;;;23.37;20.62;96258.44;5085677;28;20043;-80
2022/05/20 11:43:47;;;;;;;5.38;1.10;;;;;;;23.52;20.74;96255.22;5081139;28;20028;-79
2022/05/20 11:46:27;;;;;;;1.83;0.85;;;;;;;23.65;20.82;96245.13;5082798;28;20510;-79
2022/05/20 11:49:24;;;;;;;3.65;0.90;;;;;;;23.81;21.62;96247.06;5082763;28;20052;-80
2022/05/20 11:52:08;;;;;;;3.50;1.17;;;;;;;23.89;21.25;96245.88;5085012;28;20028;-79
2022/05/20 11:54:58;;;;;;;3.30;1.00;;;;;;;24.00;21.02;96244.19;5081946;28;20343;-81
2022/05/20 11:57:29;;;;;;;3.42;0.98;;;;;;;24.13;20.10;96237.59;5081676;28;20633;-79
2022/05/20 12:00:09;;;;;;;2.40;1.20;;;;;;;24.18;20.31;96236.88;5067901;28;20036;-82
2022/05/20 12:02:47;;;;;;;2.97;1.42;;;;;;;24.34;21.86;96240.75;5081300;28;20028;-82
2022/05/20 12:05:13;;;;;;;2.90;1.20;;;;;;;24.22;20.01;96228.97;5067713;28;20020;-80
2022/05/20 12:07:39;;;;;;;3.75;1.23;;;;;;;24.43;20.75;96227.47;5082899;28;20439;-78
2022/05/20 12:10:17;;;;;;;4.28;1.30;;;;;;;24.56;21.55;96218.94;5087078;28;20031;-80
2022/05/20 12:12:53;;;;;;;2.75;1.10;;;;;;;24.79;21.93;96216.28;5082084;28;20140;-81
2022/05/20 12:15:18;;;;;;;2.30;1.25;;;;;;;24.97;21.51;96212.50;5083602;28;20410;-79
2022/05/20 12:17:46;;;;;;;5.30;1.20;;;;;;;25.15;21.31;96211.38;5087192;28;20494;-79
2022/05/20 12:25:48;;;;;;;5.00;1.30;;;;;;;25.67;20.22;96203.88;5083018;28;20265;-80
2022/05/20 12:28:22;;;;;;;2.05;1.00;;;;;;;25.72;21.40;96200.34;5084826;28;20028;-80
2022/05/20 12:31:32;;;;;;;4.90;1.30;;;;;;;25.83;19.67;96197.75;5085310;28;20506;-80